sensor_id;sensor_type;location;lat;lon;timestamp;P1;durP1;ratioP1;P2;durP2;ratioP2
9948;SDS011;5013;51.840;8.276;2022-11-15T00:01:43;13.43;;;12.10;;
9948;SDS011;5013;51.840;8.276;2022-11-15T00:04:09;14.20;;;12.73;;
9948;SDS011;5013;51.840;8.276;2022-11-15T00:06:35;12.37;;;11.07;;
9948;SDS011;5013;51.840;8.276;2022-11-15T00:09:01;13.63;;;12.27;;
9948;SDS011;5013;51.840;8.276;2022-11-15T00:11:27;14.27;;;12.90;;
9948;SDS011;5013;51.840;8.276;2022-11-15T00:13:56;12.10;;;10.90;;
9948;SDS011;5013;51.840;8.276;2022-11-15T00:16:22;12.93;;;11.67;;
9948;SDS011;5013;51.840;8.276;2022-11-15T00:18:49;15.07;;;12.07;;
9948;SDS011;5013;51.840;8.276;2022-11-15T00:21:15;12.67;;;11.37;;
9948;SDS011;5013;51.840;8.276;2022-11-15T00:23:41;12.30;;;11.00;;
9948;SDS011;5013;51.840;8.276;2022-11-15T00:26:08;12.10;;;11.00;;
9948;SDS011;5013;51.840;8.276;2022-11-15T00:28:37;12.03;;;10.83;;
9948;SDS011;5013;51.840;8.276;2022-11-15T00:31:04;12.47;;;11.03;;
9948;SDS011;5013;51.840;8.276;2022-11-15T00:33:32;11.40;;;10.13;;
9948;SDS011;5013;51.840;8.276;2022-11-15T00:36:16;12.07;;;10.87;;
9948;SDS011;5013;51.840;8.276;2022-11-15T00:38:42;10.63;;;9.63;;
9948;SDS011;5013;51.840;8.276;2022-11-15T00:41:07;10.23;;;9.30;;
9948;SDS011;5013;51.840;8.276;2022-11-15T00:43:33;12.03;;;10.83;;
9948;SDS011;5013;51.840;8.276;2022-11-15T00:46:00;10.20;;;9.17;;
9948;SDS011;5013;51.840;8.276;2022-11-15T00:48:27;9.67;;;8.77;;
9948;SDS011;5013;51.840;8.276;2022-11-15T00:50:53;10.30;;;9.37;;
9948;SDS011;5013;51.840;8.276;2022-11-15T00:53:18;9.43;;;8.63;;
9948;SDS011;5013;51.840;8.276;2022-11-15T00:55:44;8.90;;;8.13;;
9948;SDS011;5013;51.840;8.276;2022-11-15T00:58:09;9.90;;;8.90;;
9948;SDS011;5013;51.840;8.276;2022-11-15T01:00:35;9.30;;;8.23;;
9948;SDS011;5013;51.840;8.276;2022-11-15T01:03:01;9.10;;;8.20;;
9948;SDS011;5013;51.840;8.276;2022-11-15T01:05:27;9.77;;;8.87;;
9948;SDS011;5013;51.840;8.276;2022-11-15T01:07:53;9.90;;;8.90;;
9948;SDS011;5013;51.840;8.276;2022-11-15T01:10:20;10.63;;;9.73;;
9948;SDS011;5013;51.840;8.276;2022-11-15T01:12:46;9.73;;;8.83;;
9948;SDS011;5013;51.840;8.276;2022-11-15T01:15:12;10.53;;;9.57;;
9948;SDS011;5013;51.840;8.276;2022-11-15T01:17:37;11.30;;;9.97;;
9948;SDS011;5013;51.840;8.276;2022-11-15T01:20:03;13.37;;;10.57;;
9948;SDS011;5013;51.840;8.276;2022-11-15T01:22:29;9.67;;;8.77;;
9948;SDS011;5013;51.840;8.276;2022-11-15T01:24:55;8.93;;;8.13;;
9948;SDS011;5013;51.840;8.276;2022-11-15T01:27:20;9.33;;;8.43;;
9948;SDS011;5013;51.840;8.276;2022-11-15T01:29:46;9.30;;;8.50;;
9948;SDS011;5013;51.840;8.276;2022-11-15T01:32:12;9.47;;;8.57;;
9948;SDS011;5013;51.840;8.276;2022-11-15T01:34:38;8.83;;;8.07;;
9948;SDS011;5013;51.840;8.276;2022-11-15T01:37:04;11.60;;;10.40;;
9948;SDS011;5013;51.840;8.276;2022-11-15T01:39:29;11.37;;;10.27;;
9948;SDS011;5013;51.840;8.276;2022-11-15T01:41:55;11.90;;;10.53;;
9948;SDS011;5013;51.840;8.276;2022-11-15T01:46:55;14.37;;;9.33;;
9948;SDS011;5013;51.840;8.276;2022-11-15T01:49:23;14.80;;;10.27;;
9948;SDS011;5013;51.840;8.276;2022-11-15T01:51:49;12.57;;;10.40;;
9948;SDS011;5013;51.840;8.276;2022-11-15T01:54:17;12.13;;;10.90;;
9948;SDS011;5013;51.840;8.276;2022-11-15T01:56:52;12.67;;;10.50;;
9948;SDS011;5013;51.840;8.276;2022-11-15T01:59:22;12.20;;;10.77;;
9948;SDS011;5013;51.840;8.276;2022-11-15T02:01:48;11.53;;;10.43;;
9948;SDS011;5013;51.840;8.276;2022-11-15T02:06:42;13.37;;;10.73;;
9948;SDS011;5013;51.840;8.276;2022-11-15T02:09:09;11.30;;;10.20;;
9948;SDS011;5013;51.840;8.276;2022-11-15T02:11:36;15.00;;;11.10;;
9948;SDS011;5013;51.840;8.276;2022-11-15T02:14:02;11.63;;;9.50;;
9948;SDS011;5013;51.840;8.276;2022-11-15T02:16:50;11.77;;;10.57;;
9948;SDS011;5013;51.840;8.276;2022-11-15T02:25:01;15.10;;;10.13;;
9948;SDS011;5013;51.840;8.276;2022-11-15T02:30:29;10.13;;;9.13;;
9948;SDS011;5013;51.840;8.276;2022-11-15T02:36:09;10.43;;;9.50;;
9948;SDS011;5013;51.840;8.276;2022-11-15T02:38:54;10.73;;;9.63;;
9948;SDS011;5013;51.840;8.276;2022-11-15T02:41:24;11.10;;;10.10;;
9948;SDS011;5013;51.840;8.276;2022-11-15T02:44:08;12.70;;;10.50;;
9948;SDS011;5013;51.840;8.276;2022-11-15T02:46:51;11.70;;;10.43;;
9948;SDS011;5013;51.840;8.276;2022-11-15T02:49:48;11.90;;;9.33;;
9948;SDS011;5013;51.840;8.276;2022-11-15T02:52:19;13.33;;;9.43;;
9948;SDS011;5013;51.840;8.276;2022-11-15T02:54:53;10.67;;;9.60;;
9948;SDS011;5013;51.840;8.276;2022-11-15T02:57:29;11.70;;;10.50;;
9948;SDS011;5013;51.840;8.276;2022-11-15T03:00:19;10.67;;;9.67;;
9948;SDS011;5013;51.840;8.276;2022-11-15T03:08:37;9.77;;;8.80;;
9948;SDS011;5013;51.840;8.276;2022-11-15T03:11:11;9.93;;;8.90;;
9948;SDS011;5013;51.840;8.276;2022-11-15T03:19:06;9.17;;;8.27;;
9948;SDS011;5013;51.840;8.276;2022-11-15T03:21:32;8.10;;;7.27;;
9948;SDS011;5013;51.840;8.276;2022-11-15T03:24:01;9.83;;;8.83;;
9948;SDS011;5013;51.840;8.276;2022-11-15T03:26:30;14.53;;;9.73;;
9948;SDS011;5013;51.840;8.276;2022-11-15T03:29:00;10.07;;;8.43;;
9948;SDS011;5013;51.840;8.276;2022-11-15T03:31:32;8.53;;;7.63;;
9948;SDS011;5013;51.840;8.276;2022-11-15T03:34:29;8.77;;;7.90;;
9948;SDS011;5013;51.840;8.276;2022-11-15T03:36:59;8.50;;;7.73;;
9948;SDS011;5013;51.840;8.276;2022-11-15T03:39:26;8.33;;;7.33;;
9948;SDS011;5013;51.840;8.276;2022-11-15T03:41:57;8.60;;;7.80;;
9948;SDS011;5013;51.840;8.276;2022-11-15T03:47:18;8.90;;;8.10;;
9948;SDS011;5013;51.840;8.276;2022-11-15T03:49:51;8.77;;;7.90;;
9948;SDS011;5013;51.840;8.276;2022-11-15T03:52:21;9.40;;;8.40;;
9948;SDS011;5013;51.840;8.276;2022-11-15T03:54:48;8.83;;;8.07;;
9948;SDS011;5013;51.840;8.276;2022-11-15T03:57:19;10.37;;;8.00;;
9948;SDS011;5013;51.840;8.276;2022-11-15T03:59:44;9.63;;;8.00;;
9948;SDS011;5013;51.840;8.276;2022-11-15T04:02:10;9.90;;;7.77;;
9948;SDS011;5013;51.840;8.276;2022-11-15T04:04:35;9.13;;;8.23;;
9948;SDS011;5013;51.840;8.276;2022-11-15T04:10:23;9.53;;;8.53;;
9948;SDS011;5013;51.840;8.276;2022-11-15T04:12:49;8.90;;;7.73;;
9948;SDS011;5013;51.840;8.276;2022-11-15T04:15:18;13.30;;;9.53;;
9948;SDS011;5013;51.840;8.276;2022-11-15T04:17:47;11.97;;;8.93;;
9948;SDS011;5013;51.840;8.276;2022-11-15T04:20:18;8.80;;;7.93;;
9948;SDS011;5013;51.840;8.276;2022-11-15T04:23:04;8.63;;;7.83;;
9948;SDS011;5013;51.840;8.276;2022-11-15T04:25:49;8.07;;;7.37;;
9948;SDS011;5013;51.840;8.276;2022-11-15T04:28:17;8.27;;;7.47;;
9948;SDS011;5013;51.840;8.276;2022-11-15T04:30:43;13.57;;;9.33;;
9948;SDS011;5013;51.840;8.276;2022-11-15T04:33:09;10.53;;;9.37;;
9948;SDS011;5013;51.840;8.276;2022-11-15T04:35:34;10.10;;;9.13;;
9948;SDS011;5013;51.840;8.276;2022-11-15T04:38:01;11.60;;;10.43;;
9948;SDS011;5013;51.840;8.276;2022-11-15T04:40:27;15.33;;;11.80;;
9948;SDS011;5013;51.840;8.276;2022-11-15T04:42:53;13.40;;;11.23;;
9948;SDS011;5013;51.840;8.276;2022-11-15T04:48:40;15.53;;;10.90;;
9948;SDS011;5013;51.840;8.276;2022-11-15T04:51:06;14.93;;;11.67;;
9948;SDS011;5013;51.840;8.276;2022-11-15T04:53:31;14.80;;;12.50;;
9948;SDS011;5013;51.840;8.276;2022-11-15T04:55:57;15.93;;;12.27;;
9948;SDS011;5013;51.840;8.276;2022-11-15T04:58:22;12.20;;;10.83;;
9948;SDS011;5013;51.840;8.276;2022-11-15T05:00:48;15.23;;;12.13;;
9948;SDS011;5013;51.840;8.276;2022-11-15T05:06:39;19.40;;;13.30;;
9948;SDS011;5013;51.840;8.276;2022-11-15T05:09:07;13.83;;;12.30;;
9948;SDS011;5013;51.840;8.276;2022-11-15T05:11:36;16.50;;;13.00;;
9948;SDS011;5013;51.840;8.276;2022-11-15T05:14:03;14.57;;;13.10;;
9948;SDS011;5013;51.840;8.276;2022-11-15T05:16:29;21.03;;;12.23;;
9948;SDS011;5013;51.840;8.276;2022-11-15T05:22:19;15.63;;;13.07;;
9948;SDS011;5013;51.840;8.276;2022-11-15T05:24:45;17.77;;;12.93;;
9948;SDS011;5013;51.840;8.276;2022-11-15T05:27:15;16.63;;;12.13;;
9948;SDS011;5013;51.840;8.276;2022-11-15T05:29:49;14.63;;;12.07;;
9948;SDS011;5013;51.840;8.276;2022-11-15T05:32:16;17.63;;;12.63;;
9948;SDS011;5013;51.840;8.276;2022-11-15T05:34:46;12.23;;;10.87;;
9948;SDS011;5013;51.840;8.276;2022-11-15T05:37:14;12.97;;;11.60;;
9948;SDS011;5013;51.840;8.276;2022-11-15T05:39:42;11.60;;;9.97;;
9948;SDS011;5013;51.840;8.276;2022-11-15T05:42:11;17.27;;;13.27;;
9948;SDS011;5013;51.840;8.276;2022-11-15T05:44:39;13.13;;;11.73;;
9948;SDS011;5013;51.840;8.276;2022-11-15T05:47:09;15.03;;;11.90;;
9948;SDS011;5013;51.840;8.276;2022-11-15T05:49:38;19.87;;;12.50;;
9948;SDS011;5013;51.840;8.276;2022-11-15T05:52:07;13.97;;;12.47;;
9948;SDS011;5013;51.840;8.276;2022-11-15T05:54:36;16.57;;;13.87;;
9948;SDS011;5013;51.840;8.276;2022-11-15T05:57:03;15.23;;;13.43;;
9948;SDS011;5013;51.840;8.276;2022-11-15T05:59:30;15.87;;;13.37;;
9948;SDS011;5013;51.840;8.276;2022-11-15T06:01:58;15.30;;;13.37;;
9948;SDS011;5013;51.840;8.276;2022-11-15T06:04:25;19.57;;;14.43;;
9948;SDS011;5013;51.840;8.276;2022-11-15T06:06:55;17.47;;;13.70;;
9948;SDS011;5013;51.840;8.276;2022-11-15T06:09:20;19.13;;;15.50;;
9948;SDS011;5013;51.840;8.276;2022-11-15T06:12:12;15.87;;;14.13;;
9948;SDS011;5013;51.840;8.276;2022-11-15T06:14:39;17.90;;;14.53;;
9948;SDS011;5013;51.840;8.276;2022-11-15T06:17:05;18.67;;;14.27;;
9948;SDS011;5013;51.840;8.276;2022-11-15T06:19:31;16.20;;;14.63;;
9948;SDS011;5013;51.840;8.276;2022-11-15T06:21:59;16.87;;;14.10;;
9948;SDS011;5013;51.840;8.276;2022-11-15T06:24:25;20.00;;;14.47;;
9948;SDS011;5013;51.840;8.276;2022-11-15T06:27:03;19.07;;;14.67;;
9948;SDS011;5013;51.840;8.276;2022-11-15T06:29:52;17.73;;;14.53;;
9948;SDS011;5013;51.840;8.276;2022-11-15T06:32:19;16.70;;;14.97;;
9948;SDS011;5013;51.840;8.276;2022-11-15T06:34:45;16.30;;;14.80;;
9948;SDS011;5013;51.840;8.276;2022-11-15T06:37:13;17.17;;;14.47;;
9948;SDS011;5013;51.840;8.276;2022-11-15T06:39:40;17.43;;;14.47;;
9948;SDS011;5013;51.840;8.276;2022-11-15T06:42:08;17.30;;;14.50;;
9948;SDS011;5013;51.840;8.276;2022-11-15T06:44:34;19.50;;;13.93;;
9948;SDS011;5013;51.840;8.276;2022-11-15T06:50:21;14.77;;;13.20;;
9948;SDS011;5013;51.840;8.276;2022-11-15T06:52:47;15.93;;;14.23;;
9948;SDS011;5013;51.840;8.276;2022-11-15T06:55:13;16.90;;;15.17;;
9948;SDS011;5013;51.840;8.276;2022-11-15T06:57:45;16.57;;;14.87;;
9948;SDS011;5013;51.840;8.276;2022-11-15T07:00:15;15.47;;;13.97;;
9948;SDS011;5013;51.840;8.276;2022-11-15T07:02:42;16.93;;;14.10;;
9948;SDS011;5013;51.840;8.276;2022-11-15T07:05:07;15.53;;;14.03;;
9948;SDS011;5013;51.840;8.276;2022-11-15T07:07:33;14.93;;;13.40;;
9948;SDS011;5013;51.840;8.276;2022-11-15T07:09:59;15.97;;;12.23;;
9948;SDS011;5013;51.840;8.276;2022-11-15T07:12:24;15.87;;;13.23;;
9948;SDS011;5013;51.840;8.276;2022-11-15T07:14:50;15.13;;;13.50;;
9948;SDS011;5013;51.840;8.276;2022-11-15T07:17:16;14.73;;;12.70;;
9948;SDS011;5013;51.840;8.276;2022-11-15T07:19:41;16.13;;;13.27;;
9948;SDS011;5013;51.840;8.276;2022-11-15T07:22:07;13.80;;;12.33;;
9948;SDS011;5013;51.840;8.276;2022-11-15T07:24:32;15.63;;;12.57;;
9948;SDS011;5013;51.840;8.276;2022-11-15T07:26:58;14.70;;;12.97;;
9948;SDS011;5013;51.840;8.276;2022-11-15T07:29:24;13.80;;;12.50;;
9948;SDS011;5013;51.840;8.276;2022-11-15T07:31:49;16.37;;;12.83;;
9948;SDS011;5013;51.840;8.276;2022-11-15T07:34:15;13.10;;;11.90;;
9948;SDS011;5013;51.840;8.276;2022-11-15T07:36:41;12.73;;;10.97;;
9948;SDS011;5013;51.840;8.276;2022-11-15T07:39:07;14.40;;;12.07;;
9948;SDS011;5013;51.840;8.276;2022-11-15T07:44:55;13.03;;;11.50;;
9948;SDS011;5013;51.840;8.276;2022-11-15T07:47:21;11.73;;;10.67;;
9948;SDS011;5013;51.840;8.276;2022-11-15T07:49:46;11.57;;;10.47;;
9948;SDS011;5013;51.840;8.276;2022-11-15T07:52:12;13.50;;;11.70;;
9948;SDS011;5013;51.840;8.276;2022-11-15T07:54:38;11.53;;;10.37;;
9948;SDS011;5013;51.840;8.276;2022-11-15T07:57:04;11.03;;;9.93;;
9948;SDS011;5013;51.840;8.276;2022-11-15T07:59:30;11.30;;;10.20;;
9948;SDS011;5013;51.840;8.276;2022-11-15T08:01:56;10.43;;;9.23;;
9948;SDS011;5013;51.840;8.276;2022-11-15T08:04:23;10.00;;;9.00;;
9948;SDS011;5013;51.840;8.276;2022-11-15T08:06:49;10.27;;;9.17;;
9948;SDS011;5013;51.840;8.276;2022-11-15T08:09:15;8.93;;;8.13;;
9948;SDS011;5013;51.840;8.276;2022-11-15T08:11:40;9.37;;;8.40;;
9948;SDS011;5013;51.840;8.276;2022-11-15T08:14:06;9.23;;;8.30;;
9948;SDS011;5013;51.840;8.276;2022-11-15T08:16:32;13.07;;;8.00;;
9948;SDS011;5013;51.840;8.276;2022-11-15T08:18:57;10.10;;;8.00;;
9948;SDS011;5013;51.840;8.276;2022-11-15T08:21:23;7.57;;;6.83;;
9948;SDS011;5013;51.840;8.276;2022-11-15T08:23:49;7.47;;;5.80;;
9948;SDS011;5013;51.840;8.276;2022-11-15T08:26:15;5.87;;;5.40;;
9948;SDS011;5013;51.840;8.276;2022-11-15T08:32:03;5.10;;;4.73;;
9948;SDS011;5013;51.840;8.276;2022-11-15T08:34:33;4.57;;;4.17;;
9948;SDS011;5013;51.840;8.276;2022-11-15T08:36:59;3.70;;;3.50;;
9948;SDS011;5013;51.840;8.276;2022-11-15T08:39:24;4.67;;;3.57;;
9948;SDS011;5013;51.840;8.276;2022-11-15T08:41:50;7.20;;;3.73;;
9948;SDS011;5013;51.840;8.276;2022-11-15T08:44:17;3.70;;;3.50;;
9948;SDS011;5013;51.840;8.276;2022-11-15T08:46:44;4.27;;;3.93;;
9948;SDS011;5013;51.840;8.276;2022-11-15T08:49:11;3.60;;;3.30;;
9948;SDS011;5013;51.840;8.276;2022-11-15T08:51:37;3.93;;;3.63;;
9948;SDS011;5013;51.840;8.276;2022-11-15T08:54:03;3.03;;;2.93;;
9948;SDS011;5013;51.840;8.276;2022-11-15T08:56:30;3.67;;;3.47;;
9948;SDS011;5013;51.840;8.276;2022-11-15T08:59:00;3.70;;;3.40;;
9948;SDS011;5013;51.840;8.276;2022-11-15T09:01:25;5.13;;;3.73;;
9948;SDS011;5013;51.840;8.276;2022-11-15T09:07:16;4.63;;;3.07;;
9948;SDS011;5013;51.840;8.276;2022-11-15T09:09:43;3.63;;;3.30;;
9948;SDS011;5013;51.840;8.276;2022-11-15T09:15:32;4.80;;;2.90;;
9948;SDS011;5013;51.840;8.276;2022-11-15T09:17:59;2.97;;;2.70;;
9948;SDS011;5013;51.840;8.276;2022-11-15T09:20:30;3.20;;;2.87;;
9948;SDS011;5013;51.840;8.276;2022-11-15T09:23:10;2.90;;;2.73;;
9948;SDS011;5013;51.840;8.276;2022-11-15T09:25:41;2.77;;;2.67;;
9948;SDS011;5013;51.840;8.276;2022-11-15T09:28:17;2.33;;;2.13;;
9948;SDS011;5013;51.840;8.276;2022-11-15T09:30:43;2.80;;;2.60;;
9948;SDS011;5013;51.840;8.276;2022-11-15T09:33:11;2.10;;;2.00;;
9948;SDS011;5013;51.840;8.276;2022-11-15T09:35:47;2.73;;;2.53;;
9948;SDS011;5013;51.840;8.276;2022-11-15T09:38:19;2.33;;;2.23;;
9948;SDS011;5013;51.840;8.276;2022-11-15T09:40:59;3.10;;;2.33;;
9948;SDS011;5013;51.840;8.276;2022-11-15T09:49:43;2.20;;;2.10;;
9948;SDS011;5013;51.840;8.276;2022-11-15T09:52:17;2.40;;;2.20;;
9948;SDS011;5013;51.840;8.276;2022-11-15T09:54:48;2.30;;;2.10;;
9948;SDS011;5013;51.840;8.276;2022-11-15T09:57:39;2.07;;;1.83;;
9948;SDS011;5013;51.840;8.276;2022-11-15T10:03:36;2.00;;;1.90;;
9948;SDS011;5013;51.840;8.276;2022-11-15T10:06:08;1.63;;;1.63;;
9948;SDS011;5013;51.840;8.276;2022-11-15T10:08:46;2.47;;;1.90;;
9948;SDS011;5013;51.840;8.276;2022-11-15T10:11:25;2.30;;;1.80;;
9948;SDS011;5013;51.840;8.276;2022-11-15T10:14:01;1.70;;;1.60;;
9948;SDS011;5013;51.840;8.276;2022-11-15T10:16:51;1.90;;;1.80;;
9948;SDS011;5013;51.840;8.276;2022-11-15T10:19:41;2.60;;;1.80;;
9948;SDS011;5013;51.840;8.276;2022-11-15T10:24:52;1.63;;;1.53;;
9948;SDS011;5013;51.840;8.276;2022-11-15T10:27:31;1.60;;;1.50;;
9948;SDS011;5013;51.840;8.276;2022-11-15T10:29:58;3.13;;;1.80;;
9948;SDS011;5013;51.840;8.276;2022-11-15T10:32:24;2.90;;;1.50;;
9948;SDS011;5013;51.840;8.276;2022-11-15T10:34:50;2.00;;;1.80;;
9948;SDS011;5013;51.840;8.276;2022-11-15T10:37:30;1.60;;;1.50;;
9948;SDS011;5013;51.840;8.276;2022-11-15T10:40:14;2.77;;;1.60;;
9948;SDS011;5013;51.840;8.276;2022-11-15T10:45:40;4.37;;;1.53;;
9948;SDS011;5013;51.840;8.276;2022-11-15T10:50:46;2.70;;;2.50;;
9948;SDS011;5013;51.840;8.276;2022-11-15T10:53:21;2.10;;;2.00;;
9948;SDS011;5013;51.840;8.276;2022-11-15T10:56:01;2.37;;;2.20;;
9948;SDS011;5013;51.840;8.276;2022-11-15T10:58:50;2.33;;;2.23;;
9948;SDS011;5013;51.840;8.276;2022-11-15T11:01:26;2.90;;;1.97;;
9948;SDS011;5013;51.840;8.276;2022-11-15T11:04:10;2.50;;;1.70;;
9948;SDS011;5013;51.840;8.276;2022-11-15T11:06:46;2.07;;;1.87;;
9948;SDS011;5013;51.840;8.276;2022-11-15T11:09:38;4.67;;;2.17;;
9948;SDS011;5013;51.840;8.276;2022-11-15T11:12:10;2.27;;;1.93;;
9948;SDS011;5013;51.840;8.276;2022-11-15T11:14:37;2.60;;;2.17;;
9948;SDS011;5013;51.840;8.276;2022-11-15T11:20:00;5.53;;;1.60;;
9948;SDS011;5013;51.840;8.276;2022-11-15T11:25:19;2.30;;;1.90;;
9948;SDS011;5013;51.840;8.276;2022-11-15T11:44:06;1.90;;;1.80;;
9948;SDS011;5013;51.840;8.276;2022-11-15T11:49:12;1.77;;;1.63;;
9948;SDS011;5013;51.840;8.276;2022-11-15T11:51:46;1.93;;;1.80;;
9948;SDS011;5013;51.840;8.276;2022-11-15T11:54:17;2.33;;;2.13;;
9948;SDS011;5013;51.840;8.276;2022-11-15T11:56:51;2.10;;;1.90;;
9948;SDS011;5013;51.840;8.276;2022-11-15T11:59:21;2.30;;;1.50;;
9948;SDS011;5013;51.840;8.276;2022-11-15T12:02:14;2.03;;;1.80;;
9948;SDS011;5013;51.840;8.276;2022-11-15T12:04:48;3.90;;;1.87;;
9948;SDS011;5013;51.840;8.276;2022-11-15T12:07:24;5.17;;;2.20;;
9948;SDS011;5013;51.840;8.276;2022-11-15T12:10:01;1.90;;;1.80;;
9948;SDS011;5013;51.840;8.276;2022-11-15T12:15:52;3.57;;;2.10;;
9948;SDS011;5013;51.840;8.276;2022-11-15T12:18:24;2.60;;;1.70;;
9948;SDS011;5013;51.840;8.276;2022-11-15T12:21:04;2.03;;;1.90;;
9948;SDS011;5013;51.840;8.276;2022-11-15T12:38:56;3.87;;;2.00;;
9948;SDS011;5013;51.840;8.276;2022-11-15T12:41:26;2.63;;;2.00;;
9948;SDS011;5013;51.840;8.276;2022-11-15T12:43:53;2.00;;;1.70;;
9948;SDS011;5013;51.840;8.276;2022-11-15T12:46:57;4.47;;;1.80;;
9948;SDS011;5013;51.840;8.276;2022-11-15T12:49:41;2.30;;;2.10;;
9948;SDS011;5013;51.840;8.276;2022-11-15T12:59:50;2.60;;;2.40;;
9948;SDS011;5013;51.840;8.276;2022-11-15T13:02:20;1.80;;;1.80;;
9948;SDS011;5013;51.840;8.276;2022-11-15T13:04:47;2.00;;;1.90;;
9948;SDS011;5013;51.840;8.276;2022-11-15T13:07:56;1.80;;;1.70;;
9948;SDS011;5013;51.840;8.276;2022-11-15T13:13:02;1.80;;;1.70;;
9948;SDS011;5013;51.840;8.276;2022-11-15T13:20:55;2.33;;;1.80;;
9948;SDS011;5013;51.840;8.276;2022-11-15T13:23:21;3.07;;;1.70;;
9948;SDS011;5013;51.840;8.276;2022-11-15T13:28:36;2.67;;;2.00;;
9948;SDS011;5013;51.840;8.276;2022-11-15T13:33:48;2.37;;;1.60;;
9948;SDS011;5013;51.840;8.276;2022-11-15T13:39:33;2.23;;;1.90;;
9948;SDS011;5013;51.840;8.276;2022-11-15T13:41:52;4.63;;;1.90;;
9948;SDS011;5013;51.840;8.276;2022-11-15T13:44:38;2.13;;;1.77;;
9948;SDS011;5013;51.840;8.276;2022-11-15T13:47:04;1.97;;;1.70;;
9948;SDS011;5013;51.840;8.276;2022-11-15T13:49:40;1.50;;;1.50;;
9948;SDS011;5013;51.840;8.276;2022-11-15T13:52:07;1.90;;;1.60;;
9948;SDS011;5013;51.840;8.276;2022-11-15T13:57:13;2.43;;;1.53;;
9948;SDS011;5013;51.840;8.276;2022-11-15T14:00:04;4.17;;;1.50;;
9948;SDS011;5013;51.840;8.276;2022-11-15T14:02:47;2.33;;;1.30;;
9948;SDS011;5013;51.840;8.276;2022-11-15T14:05:16;1.57;;;1.47;;
9948;SDS011;5013;51.840;8.276;2022-11-15T14:07:54;2.23;;;1.60;;
9948;SDS011;5013;51.840;8.276;2022-11-15T14:10:29;1.60;;;1.50;;
9948;SDS011;5013;51.840;8.276;2022-11-15T14:12:58;1.47;;;1.37;;
9948;SDS011;5013;51.840;8.276;2022-11-15T14:15:35;1.73;;;1.63;;
9948;SDS011;5013;51.840;8.276;2022-11-15T14:18:02;2.00;;;1.80;;
9948;SDS011;5013;51.840;8.276;2022-11-15T14:20:30;1.67;;;1.57;;
9948;SDS011;5013;51.840;8.276;2022-11-15T14:23:24;1.70;;;1.60;;
9948;SDS011;5013;51.840;8.276;2022-11-15T14:25:57;1.57;;;1.50;;
9948;SDS011;5013;51.840;8.276;2022-11-15T14:30:50;2.67;;;1.70;;
9948;SDS011;5013;51.840;8.276;2022-11-15T14:33:38;1.60;;;1.50;;
9948;SDS011;5013;51.840;8.276;2022-11-15T14:38:45;2.53;;;2.00;;
9948;SDS011;5013;51.840;8.276;2022-11-15T14:41:20;2.83;;;2.10;;
9948;SDS011;5013;51.840;8.276;2022-11-15T14:43:47;1.70;;;1.60;;
9948;SDS011;5013;51.840;8.276;2022-11-15T14:46:13;2.23;;;1.97;;
9948;SDS011;5013;51.840;8.276;2022-11-15T14:48:39;1.63;;;1.53;;
9948;SDS011;5013;51.840;8.276;2022-11-15T14:51:09;3.77;;;1.67;;
9948;SDS011;5013;51.840;8.276;2022-11-15T14:53:39;3.53;;;1.83;;
9948;SDS011;5013;51.840;8.276;2022-11-15T14:56:06;2.93;;;1.80;;
9948;SDS011;5013;51.840;8.276;2022-11-15T14:58:32;3.70;;;1.83;;
9948;SDS011;5013;51.840;8.276;2022-11-15T15:00:57;3.87;;;1.80;;
9948;SDS011;5013;51.840;8.276;2022-11-15T15:03:23;3.03;;;1.70;;
9948;SDS011;5013;51.840;8.276;2022-11-15T15:05:48;2.97;;;1.60;;
9948;SDS011;5013;51.840;8.276;2022-11-15T15:08:14;2.10;;;1.83;;
9948;SDS011;5013;51.840;8.276;2022-11-15T15:10:43;2.20;;;1.93;;
9948;SDS011;5013;51.840;8.276;2022-11-15T15:13:15;7.53;;;1.93;;
9948;SDS011;5013;51.840;8.276;2022-11-15T15:15:45;2.00;;;1.80;;
9948;SDS011;5013;51.840;8.276;2022-11-15T15:18:11;2.57;;;1.60;;
9948;SDS011;5013;51.840;8.276;2022-11-15T15:20:38;2.67;;;1.60;;
9948;SDS011;5013;51.840;8.276;2022-11-15T15:23:07;2.17;;;1.60;;
9948;SDS011;5013;51.840;8.276;2022-11-15T15:25:55;3.70;;;1.50;;
9948;SDS011;5013;51.840;8.276;2022-11-15T15:28:21;2.00;;;1.47;;
9948;SDS011;5013;51.840;8.276;2022-11-15T15:30:47;3.03;;;1.70;;
9948;SDS011;5013;51.840;8.276;2022-11-15T15:33:14;2.97;;;1.70;;
9948;SDS011;5013;51.840;8.276;2022-11-15T15:35:39;3.33;;;1.60;;
9948;SDS011;5013;51.840;8.276;2022-11-15T15:38:05;1.60;;;1.50;;
9948;SDS011;5013;51.840;8.276;2022-11-15T15:40:31;2.33;;;1.80;;
9948;SDS011;5013;51.840;8.276;2022-11-15T15:42:58;2.10;;;1.30;;
9948;SDS011;5013;51.840;8.276;2022-11-15T15:45:24;3.20;;;1.80;;
9948;SDS011;5013;51.840;8.276;2022-11-15T15:47:50;4.97;;;2.07;;
9948;SDS011;5013;51.840;8.276;2022-11-15T15:50:24;6.43;;;2.23;;
9948;SDS011;5013;51.840;8.276;2022-11-15T15:52:51;4.57;;;2.03;;
9948;SDS011;5013;51.840;8.276;2022-11-15T15:55:18;8.27;;;3.00;;
9948;SDS011;5013;51.840;8.276;2022-11-15T15:57:44;2.80;;;2.57;;
9948;SDS011;5013;51.840;8.276;2022-11-15T16:00:10;4.83;;;2.70;;
9948;SDS011;5013;51.840;8.276;2022-11-15T16:02:36;3.30;;;2.50;;
9948;SDS011;5013;51.840;8.276;2022-11-15T16:05:02;7.60;;;3.17;;
9948;SDS011;5013;51.840;8.276;2022-11-15T16:07:28;5.63;;;2.47;;
9948;SDS011;5013;51.840;8.276;2022-11-15T16:09:54;3.73;;;2.23;;
9948;SDS011;5013;51.840;8.276;2022-11-15T16:12:27;4.90;;;2.83;;
9948;SDS011;5013;51.840;8.276;2022-11-15T16:14:53;8.23;;;3.13;;
9948;SDS011;5013;51.840;8.276;2022-11-15T16:17:20;3.00;;;2.70;;
9948;SDS011;5013;51.840;8.276;2022-11-15T16:19:48;3.63;;;2.83;;
9948;SDS011;5013;51.840;8.276;2022-11-15T16:22:13;4.47;;;3.23;;
9948;SDS011;5013;51.840;8.276;2022-11-15T16:24:39;4.03;;;2.83;;
9948;SDS011;5013;51.840;8.276;2022-11-15T16:27:04;2.97;;;2.77;;
9948;SDS011;5013;51.840;8.276;2022-11-15T16:29:30;4.83;;;2.87;;
9948;SDS011;5013;51.840;8.276;2022-11-15T16:31:56;3.40;;;3.10;;
9948;SDS011;5013;51.840;8.276;2022-11-15T16:34:21;4.90;;;3.10;;
9948;SDS011;5013;51.840;8.276;2022-11-15T16:36:47;3.27;;;3.00;;
9948;SDS011;5013;51.840;8.276;2022-11-15T16:39:13;3.10;;;2.73;;
9948;SDS011;5013;51.840;8.276;2022-11-15T16:41:40;3.10;;;2.90;;
9948;SDS011;5013;51.840;8.276;2022-11-15T16:44:08;4.33;;;3.50;;
9948;SDS011;5013;51.840;8.276;2022-11-15T16:46:33;3.33;;;3.03;;
9948;SDS011;5013;51.840;8.276;2022-11-15T16:48:59;5.17;;;3.30;;
9948;SDS011;5013;51.840;8.276;2022-11-15T16:51:25;4.03;;;3.10;;
9948;SDS011;5013;51.840;8.276;2022-11-15T16:53:50;3.43;;;3.20;;
9948;SDS011;5013;51.840;8.276;2022-11-15T16:56:23;5.37;;;3.23;;
9948;SDS011;5013;51.840;8.276;2022-11-15T16:58:51;3.63;;;3.30;;
9948;SDS011;5013;51.840;8.276;2022-11-15T17:01:29;4.07;;;3.70;;
9948;SDS011;5013;51.840;8.276;2022-11-15T17:03:56;6.20;;;3.40;;
9948;SDS011;5013;51.840;8.276;2022-11-15T17:06:22;5.77;;;3.40;;
9948;SDS011;5013;51.840;8.276;2022-11-15T17:08:49;3.73;;;3.40;;
9948;SDS011;5013;51.840;8.276;2022-11-15T17:11:16;3.40;;;3.20;;
9948;SDS011;5013;51.840;8.276;2022-11-15T17:13:47;9.10;;;3.40;;
9948;SDS011;5013;51.840;8.276;2022-11-15T17:16:14;4.63;;;3.60;;
9948;SDS011;5013;51.840;8.276;2022-11-15T17:18:41;5.77;;;4.07;;
9948;SDS011;5013;51.840;8.276;2022-11-15T17:21:12;5.53;;;3.63;;
9948;SDS011;5013;51.840;8.276;2022-11-15T17:23:40;9.33;;;4.07;;
9948;SDS011;5013;51.840;8.276;2022-11-15T17:26:08;3.70;;;3.37;;
9948;SDS011;5013;51.840;8.276;2022-11-15T17:28:37;4.50;;;3.27;;
9948;SDS011;5013;51.840;8.276;2022-11-15T17:31:05;5.73;;;4.10;;
9948;SDS011;5013;51.840;8.276;2022-11-15T17:33:32;5.23;;;4.30;;
9948;SDS011;5013;51.840;8.276;2022-11-15T17:35:59;3.40;;;3.13;;
9948;SDS011;5013;51.840;8.276;2022-11-15T17:38:27;3.63;;;3.27;;
9948;SDS011;5013;51.840;8.276;2022-11-15T17:41:06;4.40;;;4.10;;
9948;SDS011;5013;51.840;8.276;2022-11-15T17:43:39;5.43;;;3.50;;
9948;SDS011;5013;51.840;8.276;2022-11-15T17:46:15;3.80;;;3.60;;
9948;SDS011;5013;51.840;8.276;2022-11-15T17:48:44;3.47;;;3.27;;
9948;SDS011;5013;51.840;8.276;2022-11-15T17:51:11;3.70;;;3.40;;
9948;SDS011;5013;51.840;8.276;2022-11-15T17:53:40;4.27;;;3.23;;
9948;SDS011;5013;51.840;8.276;2022-11-15T17:56:18;3.47;;;3.20;;